sensor_id;sensor_type;location;lat;lon;timestamp;P1;durP1;ratioP1;P2;durP2;ratioP2
65279;SDS011;51878;55.748;48.742;2022-10-01T00:01:17;17.95;;;11.48;;
65279;SDS011;51878;55.748;48.742;2022-10-01T00:03:45;17.15;;;11.13;;
65279;SDS011;51878;55.748;48.742;2022-10-01T00:06:14;16.90;;;12.25;;
65279;SDS011;51878;55.748;48.742;2022-10-01T00:08:43;19.88;;;12.52;;
65279;SDS011;51878;55.748;48.742;2022-10-01T00:11:15;19.83;;;12.45;;
65279;SDS011;51878;55.748;48.742;2022-10-01T00:13:44;18.77;;;12.05;;
65279;SDS011;51878;55.748;48.742;2022-10-01T00:16:14;17.55;;;12.63;;
65279;SDS011;51878;55.748;48.742;2022-10-01T00:18:44;17.70;;;12.27;;
65279;SDS011;51878;55.748;48.742;2022-10-01T00:21:13;16.02;;;11.50;;
65279;SDS011;51878;55.748;48.742;2022-10-01T00:23:42;18.02;;;12.10;;
65279;SDS011;51878;55.748;48.742;2022-10-01T00:26:11;16.75;;;12.25;;
65279;SDS011;51878;55.748;48.742;2022-10-01T00:28:43;18.58;;;13.40;;
65279;SDS011;51878;55.748;48.742;2022-10-01T00:31:12;15.40;;;12.23;;
65279;SDS011;51878;55.748;48.742;2022-10-01T00:33:58;14.77;;;11.82;;
65279;SDS011;51878;55.748;48.742;2022-10-01T00:36:28;15.10;;;11.70;;
65279;SDS011;51878;55.748;48.742;2022-10-01T00:38:56;13.98;;;10.98;;
65279;SDS011;51878;55.748;48.742;2022-10-01T00:41:29;14.25;;;11.40;;
65279;SDS011;51878;55.748;48.742;2022-10-01T00:44:02;15.70;;;11.68;;
65279;SDS011;51878;55.748;48.742;2022-10-01T00:46:47;15.15;;;11.82;;
65279;SDS011;51878;55.748;48.742;2022-10-01T00:49:16;14.15;;;10.93;;
65279;SDS011;51878;55.748;48.742;2022-10-01T00:51:48;19.98;;;12.98;;
65279;SDS011;51878;55.748;48.742;2022-10-01T00:54:21;18.13;;;11.98;;
65279;SDS011;51878;55.748;48.742;2022-10-01T00:56:52;15.50;;;11.82;;
65279;SDS011;51878;55.748;48.742;2022-10-01T00:59:22;12.38;;;11.07;;
65279;SDS011;51878;55.748;48.742;2022-10-01T01:01:50;17.15;;;11.90;;
65279;SDS011;51878;55.748;48.742;2022-10-01T01:04:17;15.15;;;11.68;;
65279;SDS011;51878;55.748;48.742;2022-10-01T01:07:17;13.48;;;11.40;;
65279;SDS011;51878;55.748;48.742;2022-10-01T01:09:42;17.25;;;11.98;;
65279;SDS011;51878;55.748;48.742;2022-10-01T01:12:18;15.02;;;12.00;;
65279;SDS011;51878;55.748;48.742;2022-10-01T01:17:31;15.38;;;11.60;;
65279;SDS011;51878;55.748;48.742;2022-10-01T01:25:44;14.93;;;11.60;;
65279;SDS011;51878;55.748;48.742;2022-10-01T01:28:17;13.27;;;11.93;;
65279;SDS011;51878;55.748;48.742;2022-10-01T01:30:46;13.30;;;11.45;;
65279;SDS011;51878;55.748;48.742;2022-10-01T01:33:18;14.27;;;11.68;;
65279;SDS011;51878;55.748;48.742;2022-10-01T01:35:48;19.90;;;13.18;;
65279;SDS011;51878;55.748;48.742;2022-10-01T01:38:25;13.73;;;12.02;;
65279;SDS011;51878;55.748;48.742;2022-10-01T01:40:59;17.10;;;12.98;;
65279;SDS011;51878;55.748;48.742;2022-10-01T01:43:30;18.13;;;14.68;;
65279;SDS011;51878;55.748;48.742;2022-10-01T01:46:01;22.88;;;13.93;;
65279;SDS011;51878;55.748;48.742;2022-10-01T01:48:32;18.17;;;13.75;;
65279;SDS011;51878;55.748;48.742;2022-10-01T01:53:42;20.40;;;15.23;;
65279;SDS011;51878;55.748;48.742;2022-10-01T01:56:09;23.60;;;16.10;;
65279;SDS011;51878;55.748;48.742;2022-10-01T01:58:36;17.35;;;14.38;;
65279;SDS011;51878;55.748;48.742;2022-10-01T02:01:04;22.60;;;16.33;;
65279;SDS011;51878;55.748;48.742;2022-10-01T02:03:32;22.58;;;16.00;;
65279;SDS011;51878;55.748;48.742;2022-10-01T02:11:39;16.02;;;12.30;;
65279;SDS011;51878;55.748;48.742;2022-10-01T02:14:20;21.40;;;14.98;;
65279;SDS011;51878;55.748;48.742;2022-10-01T02:19:54;22.83;;;16.20;;
65279;SDS011;51878;55.748;48.742;2022-10-01T02:22:41;20.67;;;15.40;;
65279;SDS011;51878;55.748;48.742;2022-10-01T02:25:16;21.83;;;15.65;;
65279;SDS011;51878;55.748;48.742;2022-10-01T02:27:49;25.80;;;14.82;;
65279;SDS011;51878;55.748;48.742;2022-10-01T02:30:21;22.60;;;14.80;;
65279;SDS011;51878;55.748;48.742;2022-10-01T02:32:48;24.85;;;16.98;;
65279;SDS011;51878;55.748;48.742;2022-10-01T02:35:18;24.08;;;16.10;;
65279;SDS011;51878;55.748;48.742;2022-10-01T02:37:47;31.23;;;16.75;;
65279;SDS011;51878;55.748;48.742;2022-10-01T02:40:18;23.88;;;16.67;;
65279;SDS011;51878;55.748;48.742;2022-10-01T02:42:48;27.23;;;15.45;;
65279;SDS011;51878;55.748;48.742;2022-10-01T02:45:21;24.52;;;16.83;;
65279;SDS011;51878;55.748;48.742;2022-10-01T02:47:53;29.92;;;15.02;;
65279;SDS011;51878;55.748;48.742;2022-10-01T02:50:41;23.55;;;13.73;;
65279;SDS011;51878;55.748;48.742;2022-10-01T02:53:17;25.85;;;15.40;;
65279;SDS011;51878;55.748;48.742;2022-10-01T02:55:47;27.50;;;16.77;;
65279;SDS011;51878;55.748;48.742;2022-10-01T02:58:16;29.75;;;17.40;;
65279;SDS011;51878;55.748;48.742;2022-10-01T03:00:44;37.00;;;14.18;;
65279;SDS011;51878;55.748;48.742;2022-10-01T03:03:12;25.65;;;15.38;;
65279;SDS011;51878;55.748;48.742;2022-10-01T03:05:39;28.67;;;15.00;;
65279;SDS011;51878;55.748;48.742;2022-10-01T03:08:06;25.42;;;16.77;;
65279;SDS011;51878;55.748;48.742;2022-10-01T03:10:33;23.67;;;15.10;;
65279;SDS011;51878;55.748;48.742;2022-10-01T03:13:00;30.25;;;17.17;;
65279;SDS011;51878;55.748;48.742;2022-10-01T03:15:27;27.25;;;15.73;;
65279;SDS011;51878;55.748;48.742;2022-10-01T03:17:54;31.13;;;16.80;;
65279;SDS011;51878;55.748;48.742;2022-10-01T03:20:21;26.08;;;15.90;;
65279;SDS011;51878;55.748;48.742;2022-10-01T03:22:49;31.25;;;17.50;;
65279;SDS011;51878;55.748;48.742;2022-10-01T03:25:16;28.40;;;17.88;;
65279;SDS011;51878;55.748;48.742;2022-10-01T03:27:43;32.13;;;17.45;;
65279;SDS011;51878;55.748;48.742;2022-10-01T03:30:12;24.08;;;16.45;;
65279;SDS011;51878;55.748;48.742;2022-10-01T03:32:39;27.05;;;16.35;;
65279;SDS011;51878;55.748;48.742;2022-10-01T03:35:24;24.88;;;15.13;;
65279;SDS011;51878;55.748;48.742;2022-10-01T03:37:51;25.33;;;15.15;;
65279;SDS011;51878;55.748;48.742;2022-10-01T03:40:18;23.80;;;15.10;;
65279;SDS011;51878;55.748;48.742;2022-10-01T03:42:45;25.42;;;14.25;;
65279;SDS011;51878;55.748;48.742;2022-10-01T03:45:13;22.67;;;15.35;;
65279;SDS011;51878;55.748;48.742;2022-10-01T03:47:39;21.85;;;15.15;;
65279;SDS011;51878;55.748;48.742;2022-10-01T03:50:07;21.77;;;14.07;;
65279;SDS011;51878;55.748;48.742;2022-10-01T03:52:34;23.20;;;14.93;;
65279;SDS011;51878;55.748;48.742;2022-10-01T03:55:01;26.95;;;16.30;;
65279;SDS011;51878;55.748;48.742;2022-10-01T03:57:28;27.77;;;16.40;;
65279;SDS011;51878;55.748;48.742;2022-10-01T03:59:55;25.00;;;14.27;;
65279;SDS011;51878;55.748;48.742;2022-10-01T04:02:22;22.52;;;13.85;;
65279;SDS011;51878;55.748;48.742;2022-10-01T04:04:53;20.65;;;15.18;;
65279;SDS011;51878;55.748;48.742;2022-10-01T04:07:20;20.75;;;14.32;;
65279;SDS011;51878;55.748;48.742;2022-10-01T04:09:48;21.50;;;15.00;;
65279;SDS011;51878;55.748;48.742;2022-10-01T04:12:16;22.10;;;14.55;;
65279;SDS011;51878;55.748;48.742;2022-10-01T04:14:45;21.15;;;14.38;;
65279;SDS011;51878;55.748;48.742;2022-10-01T04:17:30;29.02;;;15.25;;
65279;SDS011;51878;55.748;48.742;2022-10-01T04:19:57;24.35;;;15.50;;
65279;SDS011;51878;55.748;48.742;2022-10-01T04:22:25;21.88;;;15.13;;
65279;SDS011;51878;55.748;48.742;2022-10-01T04:24:52;21.58;;;13.95;;
65279;SDS011;51878;55.748;48.742;2022-10-01T04:27:19;20.23;;;13.77;;
65279;SDS011;51878;55.748;48.742;2022-10-01T04:29:46;22.83;;;14.95;;
65279;SDS011;51878;55.748;48.742;2022-10-01T04:32:13;24.77;;;14.77;;
65279;SDS011;51878;55.748;48.742;2022-10-01T04:34:49;20.55;;;14.48;;
65279;SDS011;51878;55.748;48.742;2022-10-01T04:37:20;19.67;;;13.93;;
65279;SDS011;51878;55.748;48.742;2022-10-01T04:39:48;22.05;;;16.70;;
65279;SDS011;51878;55.748;48.742;2022-10-01T04:42:16;22.38;;;14.90;;
65279;SDS011;51878;55.748;48.742;2022-10-01T04:44:43;23.98;;;15.73;;
65279;SDS011;51878;55.748;48.742;2022-10-01T04:47:10;26.52;;;16.80;;
65279;SDS011;51878;55.748;48.742;2022-10-01T04:49:37;26.58;;;18.58;;
65279;SDS011;51878;55.748;48.742;2022-10-01T04:52:07;27.63;;;17.30;;
65279;SDS011;51878;55.748;48.742;2022-10-01T04:54:52;25.00;;;17.27;;
65279;SDS011;51878;55.748;48.742;2022-10-01T04:57:20;25.35;;;16.45;;
65279;SDS011;51878;55.748;48.742;2022-10-01T04:59:47;25.65;;;15.77;;
65279;SDS011;51878;55.748;48.742;2022-10-01T05:02:14;26.00;;;17.40;;
65279;SDS011;51878;55.748;48.742;2022-10-01T05:04:42;26.27;;;17.15;;
65279;SDS011;51878;55.748;48.742;2022-10-01T05:07:09;33.85;;;18.88;;
65279;SDS011;51878;55.748;48.742;2022-10-01T05:09:36;32.83;;;18.27;;
65279;SDS011;51878;55.748;48.742;2022-10-01T05:12:04;28.90;;;19.80;;
65279;SDS011;51878;55.748;48.742;2022-10-01T05:14:33;24.42;;;17.48;;
65279;SDS011;51878;55.748;48.742;2022-10-01T05:17:00;31.88;;;18.52;;
65279;SDS011;51878;55.748;48.742;2022-10-01T05:19:28;31.92;;;20.10;;
65279;SDS011;51878;55.748;48.742;2022-10-01T05:21:58;30.02;;;19.15;;
65279;SDS011;51878;55.748;48.742;2022-10-01T05:24:25;26.27;;;19.25;;
65279;SDS011;51878;55.748;48.742;2022-10-01T05:26:52;27.77;;;18.25;;
65279;SDS011;51878;55.748;48.742;2022-10-01T05:29:19;27.92;;;16.55;;
65279;SDS011;51878;55.748;48.742;2022-10-01T05:31:46;25.88;;;19.08;;
65279;SDS011;51878;55.748;48.742;2022-10-01T05:34:14;29.55;;;18.83;;
65279;SDS011;51878;55.748;48.742;2022-10-01T05:36:41;31.55;;;17.58;;
65279;SDS011;51878;55.748;48.742;2022-10-01T05:39:09;29.00;;;20.38;;
65279;SDS011;51878;55.748;48.742;2022-10-01T05:41:40;32.30;;;19.25;;
65279;SDS011;51878;55.748;48.742;2022-10-01T05:44:07;30.25;;;19.52;;
65279;SDS011;51878;55.748;48.742;2022-10-01T05:46:34;25.42;;;17.60;;
65279;SDS011;51878;55.748;48.742;2022-10-01T05:49:04;31.55;;;20.88;;
65279;SDS011;51878;55.748;48.742;2022-10-01T05:51:33;26.65;;;16.73;;
65279;SDS011;51878;55.748;48.742;2022-10-01T05:54:02;34.60;;;20.00;;
65279;SDS011;51878;55.748;48.742;2022-10-01T05:56:30;29.58;;;19.13;;
65279;SDS011;51878;55.748;48.742;2022-10-01T05:58:57;39.03;;;21.20;;
65279;SDS011;51878;55.748;48.742;2022-10-01T06:01:25;43.97;;;21.70;;
65279;SDS011;51878;55.748;48.742;2022-10-01T06:03:52;34.88;;;20.00;;
65279;SDS011;51878;55.748;48.742;2022-10-01T06:06:25;30.08;;;20.50;;
65279;SDS011;51878;55.748;48.742;2022-10-01T06:08:53;34.78;;;19.95;;
65279;SDS011;51878;55.748;48.742;2022-10-01T06:11:20;34.95;;;21.23;;
65279;SDS011;51878;55.748;48.742;2022-10-01T06:13:50;34.30;;;22.10;;
65279;SDS011;51878;55.748;48.742;2022-10-01T06:16:20;44.03;;;19.95;;
65279;SDS011;51878;55.748;48.742;2022-10-01T06:18:48;64.95;;;19.15;;
65279;SDS011;51878;55.748;48.742;2022-10-01T06:21:20;56.78;;;21.23;;
65279;SDS011;51878;55.748;48.742;2022-10-01T06:23:47;39.67;;;19.95;;
65279;SDS011;51878;55.748;48.742;2022-10-01T06:26:18;47.60;;;22.52;;
65279;SDS011;51878;55.748;48.742;2022-10-01T06:28:49;28.95;;;21.63;;
65279;SDS011;51878;55.748;48.742;2022-10-01T06:31:18;39.40;;;24.13;;
65279;SDS011;51878;55.748;48.742;2022-10-01T06:33:46;32.08;;;21.08;;
65279;SDS011;51878;55.748;48.742;2022-10-01T06:36:13;40.08;;;22.30;;
65279;SDS011;51878;55.748;48.742;2022-10-01T06:38:40;44.67;;;23.77;;
65279;SDS011;51878;55.748;48.742;2022-10-01T06:41:08;31.90;;;18.88;;
65279;SDS011;51878;55.748;48.742;2022-10-01T06:43:35;45.83;;;22.70;;
65279;SDS011;51878;55.748;48.742;2022-10-01T06:46:03;37.65;;;23.60;;
65279;SDS011;51878;55.748;48.742;2022-10-01T06:48:32;34.35;;;22.50;;
65279;SDS011;51878;55.748;48.742;2022-10-01T06:51:01;31.80;;;21.55;;
65279;SDS011;51878;55.748;48.742;2022-10-01T06:53:28;45.28;;;23.15;;
65279;SDS011;51878;55.748;48.742;2022-10-01T06:55:55;31.92;;;21.70;;
65279;SDS011;51878;55.748;48.742;2022-10-01T06:58:23;39.10;;;23.10;;
65279;SDS011;51878;55.748;48.742;2022-10-01T07:00:57;31.25;;;19.95;;
65279;SDS011;51878;55.748;48.742;2022-10-01T07:03:27;35.40;;;19.55;;
65279;SDS011;51878;55.748;48.742;2022-10-01T07:05:59;28.55;;;19.17;;
65279;SDS011;51878;55.748;48.742;2022-10-01T07:08:30;32.42;;;20.15;;
65279;SDS011;51878;55.748;48.742;2022-10-01T07:10:59;39.58;;;21.83;;
65279;SDS011;51878;55.748;48.742;2022-10-01T07:13:28;26.73;;;19.85;;
65279;SDS011;51878;55.748;48.742;2022-10-01T07:15:55;34.28;;;21.05;;
65279;SDS011;51878;55.748;48.742;2022-10-01T07:18:22;28.98;;;19.40;;
65279;SDS011;51878;55.748;48.742;2022-10-01T07:20:49;31.85;;;19.60;;
65279;SDS011;51878;55.748;48.742;2022-10-01T07:23:17;20.92;;;15.43;;
65279;SDS011;51878;55.748;48.742;2022-10-01T07:25:44;26.48;;;17.75;;
65279;SDS011;51878;55.748;48.742;2022-10-01T07:28:13;24.95;;;16.83;;
65279;SDS011;51878;55.748;48.742;2022-10-01T07:30:44;21.35;;;15.95;;
65279;SDS011;51878;55.748;48.742;2022-10-01T07:33:25;22.88;;;17.30;;
65279;SDS011;51878;55.748;48.742;2022-10-01T07:35:53;22.85;;;15.52;;
65279;SDS011;51878;55.748;48.742;2022-10-01T07:38:20;20.77;;;15.55;;
65279;SDS011;51878;55.748;48.742;2022-10-01T07:40:51;22.33;;;15.57;;
65279;SDS011;51878;55.748;48.742;2022-10-01T07:43:19;20.10;;;15.85;;
65279;SDS011;51878;55.748;48.742;2022-10-01T07:45:47;23.52;;;15.73;;
65279;SDS011;51878;55.748;48.742;2022-10-01T07:48:15;22.05;;;14.90;;
65279;SDS011;51878;55.748;48.742;2022-10-01T07:50:42;18.95;;;14.10;;
65279;SDS011;51878;55.748;48.742;2022-10-01T07:53:12;16.05;;;13.52;;
65279;SDS011;51878;55.748;48.742;2022-10-01T07:55:39;17.10;;;13.05;;
65279;SDS011;51878;55.748;48.742;2022-10-01T07:58:07;16.33;;;12.70;;
65279;SDS011;51878;55.748;48.742;2022-10-01T08:00:35;16.17;;;12.88;;
65279;SDS011;51878;55.748;48.742;2022-10-01T08:03:02;18.25;;;14.07;;
65279;SDS011;51878;55.748;48.742;2022-10-01T08:05:31;14.98;;;11.18;;
65279;SDS011;51878;55.748;48.742;2022-10-01T08:08:00;19.50;;;13.50;;
65279;SDS011;51878;55.748;48.742;2022-10-01T08:10:30;19.10;;;12.60;;
65279;SDS011;51878;55.748;48.742;2022-10-01T08:15:40;15.93;;;12.63;;
65279;SDS011;51878;55.748;48.742;2022-10-01T08:18:11;17.52;;;12.20;;
65279;SDS011;51878;55.748;48.742;2022-10-01T08:20:39;15.35;;;11.05;;
65279;SDS011;51878;55.748;48.742;2022-10-01T08:23:24;18.48;;;11.90;;
65279;SDS011;51878;55.748;48.742;2022-10-01T08:25:51;16.77;;;12.10;;
65279;SDS011;51878;55.748;48.742;2022-10-01T08:28:18;17.77;;;11.98;;
65279;SDS011;51878;55.748;48.742;2022-10-01T08:30:45;14.65;;;12.32;;
65279;SDS011;51878;55.748;48.742;2022-10-01T08:33:12;17.77;;;12.23;;
65279;SDS011;51878;55.748;48.742;2022-10-01T08:35:40;14.57;;;11.27;;
65279;SDS011;51878;55.748;48.742;2022-10-01T08:38:09;13.27;;;11.02;;
65279;SDS011;51878;55.748;48.742;2022-10-01T08:40:41;14.52;;;11.85;;
65279;SDS011;51878;55.748;48.742;2022-10-01T08:46:13;13.50;;;10.15;;
65279;SDS011;51878;55.748;48.742;2022-10-01T08:54:12;11.95;;;8.98;;
65279;SDS011;51878;55.748;48.742;2022-10-01T08:56:58;11.63;;;9.27;;
65279;SDS011;51878;55.748;48.742;2022-10-01T09:04:59;14.70;;;10.40;;
65279;SDS011;51878;55.748;48.742;2022-10-01T09:07:37;13.00;;;9.80;;
65279;SDS011;51878;55.748;48.742;2022-10-01T09:10:15;11.95;;;9.75;;
65279;SDS011;51878;55.748;48.742;2022-10-01T09:13:00;14.88;;;10.32;;
65279;SDS011;51878;55.748;48.742;2022-10-01T09:26:53;14.32;;;10.95;;
65279;SDS011;51878;55.748;48.742;2022-10-01T09:29:31;13.77;;;11.18;;
65279;SDS011;51878;55.748;48.742;2022-10-01T09:32:05;18.52;;;10.25;;
65279;SDS011;51878;55.748;48.742;2022-10-01T09:34:34;15.95;;;11.57;;
65279;SDS011;51878;55.748;48.742;2022-10-01T09:37:22;16.70;;;12.05;;
65279;SDS011;51878;55.748;48.742;2022-10-01T09:42:45;12.55;;;10.45;;
65279;SDS011;51878;55.748;48.742;2022-10-01T09:45:14;14.75;;;10.98;;
65279;SDS011;51878;55.748;48.742;2022-10-01T09:47:44;17.85;;;11.82;;
65279;SDS011;51878;55.748;48.742;2022-10-01T09:50:20;14.00;;;11.18;;
65279;SDS011;51878;55.748;48.742;2022-10-01T09:53:10;14.48;;;10.40;;
65279;SDS011;51878;55.748;48.742;2022-10-01T09:55:43;16.90;;;11.43;;
65279;SDS011;51878;55.748;48.742;2022-10-01T09:58:22;15.07;;;11.32;;
65279;SDS011;51878;55.748;48.742;2022-10-01T10:00:52;17.63;;;12.10;;
65279;SDS011;51878;55.748;48.742;2022-10-01T10:03:21;19.27;;;11.82;;
65279;SDS011;51878;55.748;48.742;2022-10-01T10:06:07;14.38;;;12.57;;
65279;SDS011;51878;55.748;48.742;2022-10-01T10:08:35;16.10;;;11.35;;
65279;SDS011;51878;55.748;48.742;2022-10-01T10:11:05;16.70;;;11.57;;
65279;SDS011;51878;55.748;48.742;2022-10-01T10:13:47;15.52;;;11.98;;
65279;SDS011;51878;55.748;48.742;2022-10-01T10:16:18;14.98;;;11.82;;
65279;SDS011;51878;55.748;48.742;2022-10-01T10:19:00;16.23;;;12.07;;
65279;SDS011;51878;55.748;48.742;2022-10-01T10:21:32;17.35;;;13.50;;
65279;SDS011;51878;55.748;48.742;2022-10-01T10:24:01;14.43;;;11.07;;
65279;SDS011;51878;55.748;48.742;2022-10-01T10:26:50;13.35;;;11.52;;
65279;SDS011;51878;55.748;48.742;2022-10-01T10:29:25;14.27;;;11.48;;
65279;SDS011;51878;55.748;48.742;2022-10-01T10:31:53;15.95;;;11.70;;
65279;SDS011;51878;55.748;48.742;2022-10-01T10:34:34;15.25;;;12.85;;
65279;SDS011;51878;55.748;48.742;2022-10-01T10:37:11;19.25;;;12.48;;
65279;SDS011;51878;55.748;48.742;2022-10-01T10:39:40;15.93;;;11.55;;
65279;SDS011;51878;55.748;48.742;2022-10-01T10:42:13;15.50;;;11.73;;
65279;SDS011;51878;55.748;48.742;2022-10-01T10:44:42;14.20;;;9.90;;
65279;SDS011;51878;55.748;48.742;2022-10-01T10:47:12;15.82;;;12.25;;
65279;SDS011;51878;55.748;48.742;2022-10-01T10:49:44;14.75;;;11.30;;
65279;SDS011;51878;55.748;48.742;2022-10-01T10:52:37;13.73;;;11.10;;
65279;SDS011;51878;55.748;48.742;2022-10-01T10:55:19;14.30;;;10.13;;
65279;SDS011;51878;55.748;48.742;2022-10-01T11:00:23;12.75;;;10.57;;
65279;SDS011;51878;55.748;48.742;2022-10-01T11:03:01;30.50;;;13.18;;
65279;SDS011;51878;55.748;48.742;2022-10-01T11:05:31;13.82;;;9.50;;
65279;SDS011;51878;55.748;48.742;2022-10-01T11:08:06;15.05;;;12.00;;
65279;SDS011;51878;55.748;48.742;2022-10-01T11:13:49;12.70;;;11.40;;
65279;SDS011;51878;55.748;48.742;2022-10-01T11:16:48;14.05;;;9.77;;
65279;SDS011;51878;55.748;48.742;2022-10-01T11:30:56;15.00;;;10.80;;
65279;SDS011;51878;55.748;48.742;2022-10-01T11:36:21;13.43;;;11.60;;
65279;SDS011;51878;55.748;48.742;2022-10-01T11:39:13;14.93;;;11.18;;
65279;SDS011;51878;55.748;48.742;2022-10-01T11:41:44;14.65;;;10.27;;
65279;SDS011;51878;55.748;48.742;2022-10-01T11:47:30;15.82;;;11.45;;
65279;SDS011;51878;55.748;48.742;2022-10-01T11:50:03;14.93;;;11.65;;
65279;SDS011;51878;55.748;48.742;2022-10-01T11:52:43;17.75;;;10.93;;
65279;SDS011;51878;55.748;48.742;2022-10-01T11:58:17;13.15;;;10.23;;
65279;SDS011;51878;55.748;48.742;2022-10-01T12:04:05;13.07;;;11.10;;
65279;SDS011;51878;55.748;48.742;2022-10-01T12:10:19;12.93;;;10.50;;
65279;SDS011;51878;55.748;48.742;2022-10-01T12:13:26;15.23;;;10.57;;
65279;SDS011;51878;55.748;48.742;2022-10-01T12:21:27;13.30;;;10.43;;
65279;SDS011;51878;55.748;48.742;2022-10-01T12:24:00;14.98;;;10.30;;
65279;SDS011;51878;55.748;48.742;2022-10-01T12:32:16;17.70;;;11.38;;
65279;SDS011;51878;55.748;48.742;2022-10-01T12:38:38;12.70;;;9.23;;
65279;SDS011;51878;55.748;48.742;2022-10-01T12:49:34;14.43;;;9.88;;
65279;SDS011;51878;55.748;48.742;2022-10-01T13:04:22;12.00;;;9.15;;
65279;SDS011;51878;55.748;48.742;2022-10-01T13:15:48;12.23;;;8.65;;
65279;SDS011;51878;55.748;48.742;2022-10-01T13:21:36;14.57;;;9.95;;
65279;SDS011;51878;55.748;48.742;2022-10-01T13:26:55;11.50;;;8.10;;
65279;SDS011;51878;55.748;48.742;2022-10-01T13:37:51;11.85;;;8.95;;
65279;SDS011;51878;55.748;48.742;2022-10-01T13:40:32;11.40;;;8.40;;
65279;SDS011;51878;55.748;48.742;2022-10-01T13:43:01;10.00;;;8.32;;
65279;SDS011;51878;55.748;48.742;2022-10-01T13:50:31;11.32;;;8.32;;
65279;SDS011;51878;55.748;48.742;2022-10-01T13:53:33;11.90;;;9.18;;
65279;SDS011;51878;55.748;48.742;2022-10-01T13:55:53;11.82;;;8.32;;
65279;SDS011;51878;55.748;48.742;2022-10-01T13:58:23;12.23;;;9.00;;
65279;SDS011;51878;55.748;48.742;2022-10-01T14:01:02;12.95;;;8.82;;
65279;SDS011;51878;55.748;48.742;2022-10-01T14:03:37;15.45;;;9.63;;
65279;SDS011;51878;55.748;48.742;2022-10-01T14:06:38;12.50;;;9.43;;
65279;SDS011;51878;55.748;48.742;2022-10-01T14:11:49;13.27;;;9.40;;
65279;SDS011;51878;55.748;48.742;2022-10-01T14:14:50;13.55;;;8.32;;
65279;SDS011;51878;55.748;48.742;2022-10-01T14:17:40;12.48;;;8.75;;
65279;SDS011;51878;55.748;48.742;2022-10-01T14:20:34;15.00;;;9.98;;
65279;SDS011;51878;55.748;48.742;2022-10-01T14:23:21;11.55;;;9.85;;
65279;SDS011;51878;55.748;48.742;2022-10-01T14:26:09;12.77;;;8.77;;
65279;SDS011;51878;55.748;48.742;2022-10-01T14:29:16;9.75;;;8.80;;
65279;SDS011;51878;55.748;48.742;2022-10-01T14:31:58;13.25;;;9.35;;
65279;SDS011;51878;55.748;48.742;2022-10-01T14:37:49;11.68;;;8.93;;
65279;SDS011;51878;55.748;48.742;2022-10-01T14:40:23;13.90;;;9.48;;
65279;SDS011;51878;55.748;48.742;2022-10-01T14:43:30;11.95;;;9.30;;
65279;SDS011;51878;55.748;48.742;2022-10-01T14:46:09;9.75;;;8.43;;
65279;SDS011;51878;55.748;48.742;2022-10-01T14:48:39;17.20;;;9.52;;
65279;SDS011;51878;55.748;48.742;2022-10-01T14:51:20;11.50;;;9.10;;
65279;SDS011;51878;55.748;48.742;2022-10-01T14:53:50;14.15;;;9.07;;
65279;SDS011;51878;55.748;48.742;2022-10-01T14:56:19;14.27;;;8.55;;
65279;SDS011;51878;55.748;48.742;2022-10-01T14:58:52;12.05;;;8.15;;
65279;SDS011;51878;55.748;48.742;2022-10-01T15:01:23;12.18;;;8.43;;
65279;SDS011;51878;55.748;48.742;2022-10-01T15:03:51;11.18;;;8.32;;
65279;SDS011;51878;55.748;48.742;2022-10-01T15:06:21;10.25;;;7.65;;
65279;SDS011;51878;55.748;48.742;2022-10-01T15:08:52;11.43;;;8.30;;
65279;SDS011;51878;55.748;48.742;2022-10-01T15:11:22;11.52;;;8.70;;
65279;SDS011;51878;55.748;48.742;2022-10-01T15:13:53;10.25;;;7.70;;
65279;SDS011;51878;55.748;48.742;2022-10-01T15:16:24;8.88;;;6.57;;
65279;SDS011;51878;55.748;48.742;2022-10-01T15:19:00;9.70;;;7.88;;
65279;SDS011;51878;55.748;48.742;2022-10-01T15:21:35;9.25;;;7.50;;
65279;SDS011;51878;55.748;48.742;2022-10-01T15:24:03;8.13;;;6.90;;
65279;SDS011;51878;55.748;48.742;2022-10-01T15:26:46;11.48;;;7.38;;
65279;SDS011;51878;55.748;48.742;2022-10-01T15:29:15;8.82;;;7.68;;
65279;SDS011;51878;55.748;48.742;2022-10-01T15:31:44;13.15;;;8.82;;
65279;SDS011;51878;55.748;48.742;2022-10-01T15:34:14;8.73;;;7.82;;
65279;SDS011;51878;55.748;48.742;2022-10-01T15:36:43;10.40;;;8.02;;
65279;SDS011;51878;55.748;48.742;2022-10-01T15:41:51;16.48;;;8.77;;
65279;SDS011;51878;55.748;48.742;2022-10-01T15:52:38;12.10;;;8.38;;
65279;SDS011;51878;55.748;48.742;2022-10-01T15:55:21;10.07;;;7.90;;
65279;SDS011;51878;55.748;48.742;2022-10-01T16:03:17;13.43;;;7.70;;
65279;SDS011;51878;55.748;48.742;2022-10-01T16:06:05;11.00;;;7.82;;
65279;SDS011;51878;55.748;48.742;2022-10-01T16:19:49;10.93;;;8.55;;
65279;SDS011;51878;55.748;48.742;2022-10-01T16:24:55;10.07;;;8.25;;
65279;SDS011;51878;55.748;48.742;2022-10-01T16:27:33;10.15;;;8.32;;
65279;SDS011;51878;55.748;48.742;2022-10-01T16:30:17;9.52;;;7.20;;
65279;SDS011;51878;55.748;48.742;2022-10-01T16:32:46;12.30;;;9.65;;
65279;SDS011;51878;55.748;48.742;2022-10-01T16:35:17;10.77;;;9.68;;
65279;SDS011;51878;55.748;48.742;2022-10-01T16:37:45;12.23;;;9.15;;
65279;SDS011;51878;55.748;48.742;2022-10-01T16:40:16;14.05;;;9.50;;
65279;SDS011;51878;55.748;48.742;2022-10-01T16:42:45;12.80;;;9.23;;
65279;SDS011;51878;55.748;48.742;2022-10-01T16:45:19;11.73;;;9.13;;
65279;SDS011;51878;55.748;48.742;2022-10-01T16:47:50;12.45;;;9.32;;
65279;SDS011;51878;55.748;48.742;2022-10-01T16:50:18;9.82;;;7.80;;
65279;SDS011;51878;55.748;48.742;2022-10-01T16:52:47;12.45;;;9.38;;
65279;SDS011;51878;55.748;48.742;2022-10-01T16:57:53;10.93;;;8.38;;
65279;SDS011;51878;55.748;48.742;2022-10-01T17:00:21;9.30;;;8.10;;
65279;SDS011;51878;55.748;48.742;2022-10-01T17:02:51;13.13;;;8.23;;
65279;SDS011;51878;55.748;48.742;2022-10-01T17:05:23;12.75;;;7.05;;
65279;SDS011;51878;55.748;48.742;2022-10-01T17:07:52;8.80;;;7.18;;
65279;SDS011;51878;55.748;48.742;2022-10-01T17:10:23;7.68;;;6.88;;
65279;SDS011;51878;55.748;48.742;2022-10-01T17:12:50;9.77;;;7.07;;
65279;SDS011;51878;55.748;48.742;2022-10-01T17:15:18;8.20;;;6.75;;
65279;SDS011;51878;55.748;48.742;2022-10-01T17:17:55;9.35;;;6.60;;
65279;SDS011;51878;55.748;48.742;2022-10-01T17:20:23;9.85;;;6.43;;
65279;SDS011;51878;55.748;48.742;2022-10-01T17:22:54;11.85;;;6.90;;
65279;SDS011;51878;55.748;48.742;2022-10-01T17:25:23;9.27;;;6.70;;
65279;SDS011;51878;55.748;48.742;2022-10-01T17:27:58;8.60;;;6.80;;
65279;SDS011;51878;55.748;48.742;2022-10-01T17:30:26;10.45;;;6.57;;
65279;SDS011;51878;55.748;48.742;2022-10-01T17:32:58;10.90;;;6.78;;
65279;SDS011;51878;55.748;48.742;2022-10-01T17:35:27;7.30;;;6.22;;
65279;SDS011;51878;55.748;48.742;2022-10-01T17:37:55;9.25;;;7.25;;
65279;SDS011;51878;55.748;48.742;2022-10-01T17:40:24;8.43;;;7.15;;
65279;SDS011;51878;55.748;48.742;2022-10-01T17:42:51;11.30;;;7.10;;
65279;SDS011;51878;55.748;48.742;2022-10-01T17:45:18;10.27;;;7.18;;
65279;SDS011;51878;55.748;48.742;2022-10-01T17:47:46;10.95;;;7.13;;